Time;durP1;ratioP1;P1;durP2;ratioP2;P2;SDS_P1;SDS_P2;PMS_P1;PMS_P2;Temp;Humidity;BMP_temperature;BMP_pressure;BME280_temperature;BME280_humidity;BME280_pressure;Samples;Min_cycle;Max_cycle;Signal;HPM_P1;HPM_P2
2022/11/13 00:00:34;;;;;;;2.78;0.60;;;;;;;14.49;47.61;101748.72;5031723;28;20025;-52
2022/11/13 00:03:00;;;;;;;1.73;0.52;;;;;;;14.45;48.50;101758.22;5045606;28;20087;-51
2022/11/13 00:05:26;;;;;;;5.25;0.85;;;;;;;14.36;48.47;101754.06;5050381;28;20021;-54
2022/11/13 00:07:53;;;;;;;4.60;0.60;;;;;;;14.39;48.37;101759.06;5044154;28;20025;-54
2022/11/13 00:10:19;;;;;;;2.67;0.60;;;;;;;14.33;48.85;101751.81;5051109;28;20493;-55
2022/11/13 00:12:45;;;;;;;2.22;0.52;;;;;;;14.27;49.28;101752.66;5050971;28;20040;-55
2022/11/13 00:15:12;;;;;;;1.73;0.70;;;;;;;14.28;49.21;101757.00;5033793;28;20026;-55
2022/11/13 00:17:38;;;;;;;1.80;0.75;;;;;;;14.19;49.03;101756.38;5031688;28;20032;-54
2022/11/13 00:20:05;;;;;;;3.70;0.68;;;;;;;14.02;49.61;101757.00;5031693;28;20056;-54
2022/11/13 00:22:31;;;;;;;2.45;0.60;;;;;;;14.02;50.26;101755.13;5031226;28;20050;-53
2022/11/13 00:24:57;;;;;;;2.65;0.60;;;;;;;13.98;50.66;101759.25;5031962;28;20473;-53
2022/11/13 00:27:23;;;;;;;4.82;0.50;;;;;;;13.99;50.71;101756.38;5031558;28;20033;-54
2022/11/13 00:29:49;;;;;;;3.60;0.40;;;;;;;13.92;50.77;101763.59;5046070;28;20116;-54
2022/11/13 00:32:16;;;;;;;3.65;0.60;;;;;;;13.90;50.98;101757.59;5055335;28;20029;-54
2022/11/13 00:34:42;;;;;;;3.00;0.77;;;;;;;13.93;51.66;101756.34;5055410;28;20029;-53
2022/11/13 00:37:08;;;;;;;4.43;0.95;;;;;;;13.79;51.81;101766.28;5062652;28;20032;-54
2022/11/13 00:39:34;;;;;;;3.47;1.10;;;;;;;13.77;52.07;101765.66;5058213;28;20083;-53
2022/11/13 00:42:00;;;;;;;2.45;0.60;;;;;;;13.95;51.59;101759.69;5048353;28;20032;-54
2022/11/13 00:44:27;;;;;;;2.65;0.80;;;;;;;13.77;52.06;101768.38;5055928;28;20032;-53
2022/11/13 00:46:53;;;;;;;4.63;1.20;;;;;;;13.72;52.21;101758.22;5055148;28;20396;-54
2022/11/13 00:49:19;;;;;;;3.08;0.88;;;;;;;13.61;52.23;101755.28;5055339;28;20029;-54
2022/11/13 00:51:45;;;;;;;2.35;0.55;;;;;;;13.51;52.77;101761.06;5050852;28;20029;-49
2022/11/13 00:54:11;;;;;;;1.83;0.57;;;;;;;13.59;53.17;101765.41;5049703;28;20148;-55
2022/11/13 00:56:37;;;;;;;3.45;0.70;;;;;;;13.74;52.82;101758.00;5034654;28;20021;-54
2022/11/13 00:59:04;;;;;;;1.75;0.80;;;;;;;13.50;53.52;101762.09;5054478;28;20024;-55
2022/11/13 01:01:30;;;;;;;2.30;0.68;;;;;;;13.33;54.06;101767.00;5034481;28;20112;-55
2022/11/13 01:03:56;;;;;;;4.13;0.88;;;;;;;13.37;54.21;101764.72;5037679;28;20032;-53
2022/11/13 01:06:25;;;;;;;5.13;0.90;;;;;;;13.32;53.71;101765.31;5060105;28;20041;-54
2022/11/13 01:08:56;;;;;;;13.98;6.35;;;;;;;13.20;54.44;101769.59;5070745;28;20036;-53
2022/11/13 01:11:26;;;;;;;5.70;2.38;;;;;;;12.92;55.12;101759.75;5054518;28;20032;-54
2022/11/13 01:13:52;;;;;;;2.13;1.02;;;;;;;12.90;55.51;101769.03;5074195;28;20016;-53
2022/11/13 01:16:22;;;;;;;2.33;0.85;;;;;;;12.74;55.88;101778.25;5053249;28;20488;-56
2022/11/13 01:18:48;;;;;;;2.58;1.30;;;;;;;12.73;55.94;101779.28;5034194;28;20067;-55
2022/11/13 01:21:19;;;;;;;2.60;0.75;;;;;;;12.68;56.30;101776.34;5048244;28;20027;-57
2022/11/13 01:23:45;;;;;;;2.83;1.88;;;;;;;12.72;56.10;101774.94;5056060;28;20024;-57
2022/11/13 01:26:20;;;;;;;5.25;3.38;;;;;;;12.70;56.62;101776.97;5065534;28;20473;-57
2022/11/13 01:28:47;;;;;;;3.92;1.50;;;;;;;12.64;56.93;101783.13;5072301;28;20027;-57
2022/11/13 01:31:16;;;;;;;3.35;0.80;;;;;;;12.53;57.02;101776.44;5073788;28;20043;-56
2022/11/13 01:33:44;;;;;;;1.92;1.17;;;;;;;12.65;56.84;101779.41;5064431;28;20527;-57
2022/11/13 01:36:16;;;;;;;5.43;0.88;;;;;;;12.63;57.30;101781.47;5053929;28;20486;-56
2022/11/13 01:38:42;;;;;;;6.95;1.02;;;;;;;12.56;57.41;101783.31;5066492;22;20412;-57
2022/11/13 01:41:16;;;;;;;4.97;1.90;;;;;;;12.49;57.76;101793.16;5072385;28;20024;-56
2022/11/13 01:43:42;;;;;;;3.35;0.82;;;;;;;12.53;57.82;101781.81;5073081;28;20024;-54
2022/11/13 01:46:17;;;;;;;2.38;0.75;;;;;;;12.42;58.49;101785.03;5073025;28;20025;-55
2022/11/13 01:49:11;;;;;;;2.35;0.75;;;;;;;12.33;58.56;101786.22;5071823;28;20031;-52
2022/11/13 01:51:46;;;;;;;2.20;0.77;;;;;;;12.29;58.98;101790.31;5065390;28;20028;-56
2022/11/13 01:54:18;;;;;;;5.30;0.95;;;;;;;12.12;59.90;101795.13;5073680;28;20103;-53
2022/11/13 01:56:44;;;;;;;3.88;0.70;;;;;;;12.38;59.38;101800.72;5053504;28;20100;-50
2022/11/13 01:59:33;;;;;;;2.30;0.60;;;;;;;12.40;59.30;101796.00;5053091;28;20071;-52
2022/11/13 02:02:00;;;;;;;1.60;0.60;;;;;;;12.17;59.86;101797.25;5065589;28;20374;-52
2022/11/13 02:04:28;;;;;;;1.85;0.70;;;;;;;12.21;59.61;101793.13;5073063;28;20031;-52
2022/11/13 02:06:56;;;;;;;6.50;1.70;;;;;;;12.27;59.78;101789.66;5069142;28;20114;-50
2022/11/13 02:09:41;;;;;;;2.63;0.70;;;;;;;12.22;60.32;101801.00;5053605;28;20055;-52
2022/11/13 02:12:11;;;;;;;3.27;1.47;;;;;;;12.33;59.90;101796.97;5056627;28;20029;-51
2022/11/13 02:14:43;;;;;;;1.85;1.02;;;;;;;12.20;60.04;101797.66;5073192;28;20104;-52
2022/11/13 02:17:14;;;;;;;2.53;0.60;;;;;;;12.23;60.47;101797.28;5073184;28;20173;-50
2022/11/13 02:19:46;;;;;;;4.60;1.10;;;;;;;11.94;61.33;101784.00;5072887;28;20024;-51
2022/11/13 02:22:39;;;;;;;4.03;0.73;;;;;;;11.91;61.48;101792.44;5068639;28;20036;-52
2022/11/13 02:25:06;;;;;;;1.10;0.50;;;;;;;11.74;62.04;101781.94;5052634;28;20491;-52
2022/11/13 02:27:45;;;;;;;2.88;0.60;;;;;;;11.87;61.78;101792.81;5052868;28;20032;-52
2022/11/13 02:30:13;;;;;;;2.25;0.82;;;;;;;11.86;61.72;101801.91;5053122;28;20492;-48
2022/11/13 02:32:46;;;;;;;2.35;0.93;;;;;;;12.06;61.05;101796.75;5052365;28;20100;-49
2022/11/13 02:35:16;;;;;;;6.18;1.30;;;;;;;11.97;61.23;101786.31;5065030;28;20385;-52
2022/11/13 02:37:42;;;;;;;2.80;1.02;;;;;;;11.83;61.85;101802.28;5072788;28;20503;-51
2022/11/13 02:40:09;;;;;;;2.25;0.85;;;;;;;11.92;61.84;101812.88;5072152;28;20437;-53
2022/11/13 02:42:35;;;;;;;3.35;1.10;;;;;;;11.99;61.38;101811.91;5059073;28;20032;-50
2022/11/13 02:45:01;;;;;;;2.40;1.17;;;;;;;11.89;61.79;101814.94;5072327;28;20415;-52
2022/11/13 02:47:28;;;;;;;1.55;0.90;;;;;;;11.77;62.00;101819.13;5072574;28;20035;-52
2022/11/13 02:49:54;;;;;;;4.20;1.10;;;;;;;11.81;62.07;101822.22;5053503;28;20099;-52
2022/11/13 02:52:20;;;;;;;2.35;1.02;;;;;;;11.80;62.23;101824.09;5059439;28;20024;-52
2022/11/13 02:54:46;;;;;;;11.82;1.20;;;;;;;11.89;61.80;101825.69;5072201;28;20016;-52
2022/11/13 02:57:13;;;;;;;3.08;1.08;;;;;;;12.01;61.72;101825.16;5072019;28;20069;-51
2022/11/13 02:59:40;;;;;;;2.42;1.23;;;;;;;11.95;62.04;101823.25;5072552;28;20028;-50
2022/11/13 03:02:07;;;;;;;2.75;0.93;;;;;;;11.89;62.39;101823.00;5072395;28;20028;-52
2022/11/13 03:04:33;;;;;;;1.73;0.77;;;;;;;12.32;61.22;101824.81;5072393;28;20396;-52
2022/11/13 03:06:59;;;;;;;3.22;1.38;;;;;;;12.06;61.41;101823.56;5072228;28;20028;-52
2022/11/13 03:09:25;;;;;;;2.05;0.90;;;;;;;12.01;61.65;101820.63;5071681;28;20028;-52
2022/11/13 03:11:51;;;;;;;2.97;1.08;;;;;;;12.01;61.47;101825.16;5053733;28;20043;-53
2022/11/13 03:14:17;;;;;;;4.05;1.38;;;;;;;12.02;61.62;101816.09;5072144;28;20052;-51
2022/11/13 03:16:44;;;;;;;4.78;1.30;;;;;;;11.97;61.78;101813.16;5071987;28;20560;-52
2022/11/13 03:19:10;;;;;;;4.45;1.50;;;;;;;11.94;61.79;101816.19;5071962;28;20043;-49
2022/11/13 03:21:36;;;;;;;3.00;1.45;;;;;;;11.60;63.51;101805.13;5072020;28;20465;-52
2022/11/13 03:24:02;;;;;;;5.10;1.42;;;;;;;10.96;65.06;101817.47;5071837;28;20064;-51
2022/11/13 03:26:29;;;;;;;3.67;1.40;;;;;;;11.34;63.97;101808.31;5071005;28;20024;-52
2022/11/13 03:28:55;;;;;;;3.65;1.60;;;;;;;11.44;63.61;101813.38;5071690;28;20026;-52
2022/11/13 03:31:21;;;;;;;4.28;1.38;;;;;;;11.63;63.01;101811.94;5071697;28;20024;-52
2022/11/13 03:33:47;;;;;;;4.10;1.75;;;;;;;11.68;62.87;101814.88;5071763;28;20021;-52
2022/11/13 03:36:14;;;;;;;3.53;1.60;;;;;;;11.66;62.73;101822.31;5071812;28;20024;-52
2022/11/13 03:38:40;;;;;;;2.50;1.60;;;;;;;11.83;62.16;101825.59;5071514;28;20045;-51
2022/11/13 03:41:06;;;;;;;5.47;1.92;;;;;;;11.88;62.05;101826.69;5071448;28;20412;-52
2022/11/13 03:43:32;;;;;;;4.78;1.70;;;;;;;11.75;62.48;101826.50;5070771;28;20473;-51
2022/11/13 03:45:58;;;;;;;3.10;1.63;;;;;;;12.03;62.06;101836.53;5071527;28;20028;-49
2022/11/13 03:48:24;;;;;;;3.13;1.30;;;;;;;11.82;62.33;101832.78;5064720;28;20055;-50
2022/11/13 03:50:53;;;;;;;5.43;1.48;;;;;;;11.76;62.74;101832.69;5064174;28;20111;-51
2022/11/13 03:53:20;;;;;;;4.00;1.40;;;;;;;11.87;62.84;101827.69;5071431;28;20032;-52
2022/11/13 03:55:47;;;;;;;6.03;1.85;;;;;;;11.82;63.03;101832.78;5066628;28;20056;-51
2022/11/13 03:58:13;;;;;;;7.90;4.40;;;;;;;12.01;62.30;101836.72;5051559;28;20027;-52
2022/11/13 04:00:41;;;;;;;5.07;2.85;;;;;;;11.79;62.94;101821.59;5042885;28;20032;-52
2022/11/13 04:03:07;;;;;;;4.57;2.80;;;;;;;11.51;64.06;101825.00;5071199;28;20112;-51
2022/11/13 04:05:34;;;;;;;4.85;2.20;;;;;;;11.57;63.84;101828.78;5072748;28;20086;-50
2022/11/13 04:08:00;;;;;;;7.43;1.95;;;;;;;11.53;63.71;101828.31;5075633;28;20063;-50
2022/11/13 04:10:27;;;;;;;3.30;1.83;;;;;;;11.32;64.72;101831.75;5075685;28;20025;-49
2022/11/13 04:12:53;;;;;;;3.05;1.50;;;;;;;11.29;64.73;101832.16;5075526;28;20384;-51
2022/11/13 04:15:19;;;;;;;3.17;1.80;;;;;;;11.66;63.69;101830.34;5075424;28;20071;-49
2022/11/13 04:17:45;;;;;;;4.68;2.38;;;;;;;11.47;64.33;101830.94;5074616;28;20060;-50
2022/11/13 04:20:12;;;;;;;3.97;1.90;;;;;;;11.22;65.13;101836.59;5075211;28;20078;-51
2022/11/13 04:22:38;;;;;;;5.18;2.05;;;;;;;10.63;66.55;101844.59;5075014;28;20021;-51
2022/11/13 04:25:05;;;;;;;4.03;1.90;;;;;;;10.24;68.33;101842.91;5075214;28;20020;-49
2022/11/13 04:27:31;;;;;;;5.60;2.00;;;;;;;10.11;69.44;101853.34;5075096;28;20060;-50
2022/11/13 04:29:58;;;;;;;5.57;1.85;;;;;;;10.19;69.00;101855.97;5074753;28;20024;-52
2022/11/13 04:32:24;;;;;;;2.60;1.38;;;;;;;10.20;69.41;101857.63;5075074;28;20025;-52
2022/11/13 04:34:50;;;;;;;3.20;1.48;;;;;;;10.25;69.63;101857.94;5074113;28;20028;-50
2022/11/13 04:37:16;;;;;;;4.07;1.50;;;;;;;10.38;69.73;101853.84;5074911;28;20448;-49
2022/11/13 04:39:42;;;;;;;3.42;1.00;;;;;;;10.67;68.85;101863.81;5074752;28;20048;-50
2022/11/13 04:44:55;;;;;;;5.38;1.30;;;;;;;10.82;69.14;101862.78;5075410;28;20426;-52
2022/11/13 04:47:21;;;;;;;3.28;0.98;;;;;;;11.17;69.04;101860.44;5074795;28;20025;-52
2022/11/13 04:49:47;;;;;;;5.82;1.13;;;;;;;10.80;70.33;101864.84;5056698;28;20156;-52
2022/11/13 04:52:14;;;;;;;2.05;1.02;;;;;;;10.90;71.02;101866.44;5068785;28;20029;-51
2022/11/13 04:54:40;;;;;;;2.45;0.80;;;;;;;11.00;70.15;101875.03;5074766;28;20024;-51
2022/11/13 04:57:06;;;;;;;2.45;1.08;;;;;;;11.14;69.53;101871.50;5074645;28;20115;-51
2022/11/13 04:59:32;;;;;;;3.28;0.95;;;;;;;11.21;69.15;101867.06;5074645;28;20058;-52
2022/11/13 05:02:00;;;;;;;2.63;0.60;;;;;;;11.25;69.06;101872.91;5074035;28;20047;-51
2022/11/13 05:04:26;;;;;;;5.63;1.15;;;;;;;11.17;69.40;101863.13;5074355;28;20461;-51
2022/11/13 05:06:52;;;;;;;1.23;0.88;;;;;;;11.23;69.06;101864.22;5074499;28;20039;-52
2022/11/13 05:09:18;;;;;;;3.60;0.90;;;;;;;11.17;69.12;101868.47;5073663;28;20020;-51
2022/11/13 05:11:45;;;;;;;6.25;1.10;;;;;;;11.16;68.78;101869.50;5073835;28;20029;-52
2022/11/13 05:14:12;;;;;;;2.33;0.77;;;;;;;11.17;68.72;101865.81;5074411;28;20021;-52
2022/11/13 05:16:38;;;;;;;3.50;1.10;;;;;;;11.14;68.54;101868.84;5073976;28;20032;-51
2022/11/13 05:19:08;;;;;;;5.00;1.25;;;;;;;10.98;69.58;101874.38;5068569;28;20130;-52
2022/11/13 05:21:35;;;;;;;5.50;1.67;;;;;;;11.03;69.54;101880.00;5073828;28;20426;-51
2022/11/13 05:24:01;;;;;;;5.07;1.05;;;;;;;11.11;69.27;101879.94;5074003;28;20469;-52
2022/11/13 05:26:28;;;;;;;4.80;1.45;;;;;;;11.12;69.17;101878.91;5073051;28;20059;-52
2022/11/13 05:28:58;;;;;;;4.55;1.52;;;;;;;11.15;69.22;101873.19;5074249;28;20082;-52
2022/11/13 05:31:25;;;;;;;3.78;1.40;;;;;;;11.14;69.35;101876.03;5073451;28;20052;-51
2022/11/13 05:33:52;;;;;;;3.28;1.45;;;;;;;11.14;69.06;101871.50;5073838;28;20537;-52
2022/11/13 05:36:19;;;;;;;3.35;1.23;;;;;;;11.24;69.66;101877.44;5073777;28;20024;-51
2022/11/13 05:38:46;;;;;;;5.20;1.20;;;;;;;11.21;70.11;101869.75;5073796;28;20445;-52
2022/11/13 05:41:15;;;;;;;2.63;1.10;;;;;;;11.10;70.27;101868.41;5073557;28;20085;-49
2022/11/13 05:43:42;;;;;;;3.75;0.90;;;;;;;11.17;70.46;101870.34;5073052;28;20027;-51
2022/11/13 05:46:13;;;;;;;3.05;1.23;;;;;;;11.12;70.53;101868.19;5073724;28;20082;-50
2022/11/13 05:48:40;;;;;;;5.90;1.00;;;;;;;11.31;70.14;101880.19;5065102;28;20025;-51
2022/11/13 05:51:13;;;;;;;4.45;1.20;;;;;;;11.19;70.24;101879.00;5070088;28;20361;-50
2022/11/13 05:53:40;;;;;;;7.53;1.80;;;;;;;11.16;70.85;101874.00;5073321;28;20029;-50
2022/11/13 05:56:12;;;;;;;3.10;1.05;;;;;;;11.10;70.88;101871.06;5073558;28;20032;-51
2022/11/13 05:58:40;;;;;;;3.95;1.30;;;;;;;11.23;70.49;101874.94;5071632;28;20568;-52
2022/11/13 06:01:16;;;;;;;5.07;1.10;;;;;;;11.10;70.88;101875.56;5070763;28;20040;-52
2022/11/13 06:03:44;;;;;;;4.18;1.30;;;;;;;11.05;70.55;101878.84;5072643;28;20032;-51
2022/11/13 06:06:13;;;;;;;5.88;1.30;;;;;;;11.15;70.49;101881.22;5073204;28;20089;-49
2022/11/13 06:08:40;;;;;;;6.90;1.40;;;;;;;11.01;70.75;101877.53;5073370;28;20049;-51
2022/11/13 06:11:09;;;;;;;5.10;1.20;;;;;;;10.92;70.70;101877.78;5072226;28;20035;-50
2022/11/13 06:13:35;;;;;;;3.63;1.40;;;;;;;11.02;70.79;101879.19;5070618;28;20513;-49
2022/11/13 06:16:07;;;;;;;3.67;1.40;;;;;;;10.95;70.97;101882.78;5072621;28;20463;-51
2022/11/13 06:18:35;;;;;;;3.70;0.90;;;;;;;11.00;71.06;101883.06;5072505;28;20064;-48
2022/11/13 06:21:06;;;;;;;1.85;0.90;;;;;;;11.13;70.76;101879.75;5072865;28;20481;-52
2022/11/13 06:23:34;;;;;;;2.17;0.85;;;;;;;11.23;70.94;101885.66;5072756;28;20396;-48
2022/11/13 06:26:33;;;;;;;6.03;1.30;;;;;;;11.00;71.13;101891.94;5073251;28;20035;-52
2022/11/13 06:29:01;;;;;;;2.13;1.00;;;;;;;10.90;71.52;101887.84;5069112;28;20032;-52
2022/11/13 06:31:30;;;;;;;7.13;1.55;;;;;;;10.98;71.58;101895.81;5072487;28;20060;-51
2022/11/13 06:33:58;;;;;;;6.07;1.42;;;;;;;10.79;72.29;101889.97;5071164;28;20024;-49
2022/11/13 06:36:27;;;;;;;5.85;1.85;;;;;;;10.83;72.44;101890.44;5070615;28;20036;-48
2022/11/13 06:38:53;;;;;;;5.75;1.60;;;;;;;10.86;72.73;101886.56;5054611;28;20044;-49
2022/11/13 06:41:22;;;;;;;6.15;1.10;;;;;;;10.57;73.77;101888.16;5071447;28;20086;-51
2022/11/13 06:43:49;;;;;;;4.50;1.38;;;;;;;10.62;73.52;101883.09;5071952;28;20046;-52
2022/11/13 06:46:23;;;;;;;4.10;1.40;;;;;;;10.88;73.12;101887.19;5069792;28;20024;-48
2022/11/13 06:48:50;;;;;;;3.10;1.17;;;;;;;10.74;73.45;101883.50;5070066;28;20024;-49
2022/11/13 06:51:22;;;;;;;3.75;1.30;;;;;;;10.73;73.38;101890.69;5071062;28;20024;-49
2022/11/13 06:53:49;;;;;;;6.38;1.20;;;;;;;10.64;73.94;101890.94;5071437;28;20131;-49
2022/11/13 06:56:16;;;;;;;2.22;1.30;;;;;;;10.83;74.09;101891.28;5071557;28;20051;-50
2022/11/13 06:58:42;;;;;;;2.47;0.80;;;;;;;10.74;74.48;101907.59;5071165;28;20028;-51
2022/11/13 07:01:18;;;;;;;2.42;0.70;;;;;;;10.73;74.54;101895.22;5071269;28;20028;-52
2022/11/13 07:03:43;;;;;;;;;;;;;;;10.62;74.80;101895.66;5071881;28;20423;-51
2022/11/13 07:06:15;;;;;;;1.55;0.70;;;;;;;10.62;74.71;101891.13;5070977;28;20372;-49
2022/11/13 07:08:42;;;;;;;2.38;0.80;;;;;;;10.63;74.79;101889.28;5053197;28;20120;-49
2022/11/13 07:11:13;;;;;;;3.58;0.90;;;;;;;10.89;74.62;101896.91;5077608;22;20571;-47
2022/11/13 07:13:40;;;;;;;2.97;1.02;;;;;;;11.01;74.81;101898.97;5071317;28;20029;-49
2022/11/13 07:16:08;;;;;;;4.05;0.73;;;;;;;10.92;74.67;101893.84;5071208;28;20036;-52
2022/11/13 07:18:35;;;;;;;3.05;1.15;;;;;;;10.80;75.38;101896.16;5069861;28;20029;-49
2022/11/13 07:21:06;;;;;;;5.50;0.95;;;;;;;10.94;75.04;101895.34;5071469;28;20108;-50
2022/11/13 07:23:35;;;;;;;1.65;0.80;;;;;;;10.70;75.87;101895.56;5070775;28;20024;-50
2022/11/13 07:26:05;;;;;;;7.75;1.48;;;;;;;10.41;76.81;101893.63;5069615;28;20131;-49
2022/11/13 07:28:31;;;;;;;6.40;1.17;;;;;;;10.47;77.10;101887.56;5071565;28;20033;-48
2022/11/13 07:30:58;;;;;;;2.65;0.90;;;;;;;10.62;76.71;101883.09;5051809;28;20455;-48
2022/11/13 07:33:24;;;;;;;2.92;1.10;;;;;;;10.52;76.74;101885.19;5070845;28;20480;-52
2022/11/13 07:35:54;;;;;;;3.28;0.90;;;;;;;10.55;76.55;101885.66;5070661;28;20467;-52
2022/11/13 07:38:20;;;;;;;3.70;1.00;;;;;;;10.76;76.01;101889.47;5069774;28;20040;-49
2022/11/13 07:40:46;;;;;;;4.18;1.20;;;;;;;10.69;75.94;101884.03;5070090;28;20025;-50
2022/11/13 07:43:12;;;;;;;3.00;1.05;;;;;;;10.66;75.67;101889.75;5070787;28;20103;-49
2022/11/13 07:45:39;;;;;;;4.15;0.90;;;;;;;10.43;76.34;101896.94;5070983;28;20039;-51
2022/11/13 07:48:05;;;;;;;4.07;1.23;;;;;;;10.34;76.58;101895.38;5070329;28;20067;-48
2022/11/13 07:50:34;;;;;;;4.07;1.13;;;;;;;10.23;77.27;101904.63;5070568;28;20024;-49
2022/11/13 07:53:03;;;;;;;2.08;0.80;;;;;;;10.31;77.03;101901.91;5070512;28;20044;-50
2022/11/13 07:55:30;;;;;;;3.40;0.82;;;;;;;10.28;76.49;101903.09;5070503;28;20028;-51
2022/11/13 07:57:58;;;;;;;3.50;1.00;;;;;;;10.46;76.01;101910.00;5051325;28;20100;-49
2022/11/13 08:00:25;;;;;;;2.67;1.05;;;;;;;10.41;75.14;101909.69;5062422;28;20029;-49
2022/11/13 08:02:51;;;;;;;3.40;1.10;;;;;;;10.70;74.73;101912.47;5068383;28;20029;-49
2022/11/13 08:05:18;;;;;;;4.93;1.13;;;;;;;10.45;75.05;101908.34;5070454;28;20024;-48
2022/11/13 08:07:49;;;;;;;4.57;0.95;;;;;;;10.45;75.00;101906.50;5070464;28;20025;-49
2022/11/13 08:10:17;;;;;;;3.92;0.90;;;;;;;10.36;75.14;101904.03;5069804;28;20045;-49
2022/11/13 08:12:44;;;;;;;2.05;0.80;;;;;;;10.56;74.61;101905.22;5071411;28;20418;-48
2022/11/13 08:15:11;;;;;;;4.40;1.38;;;;;;;10.66;74.09;101903.16;5070611;28;20038;-49
2022/11/13 08:17:37;;;;;;;4.32;0.93;;;;;;;10.78;73.64;101909.72;5069633;28;20485;-48
2022/11/13 08:20:05;;;;;;;2.22;1.23;;;;;;;10.60;74.07;101906.50;5069221;28;20036;-49
2022/11/13 08:22:31;;;;;;;5.38;0.90;;;;;;;10.44;74.25;101907.50;5069726;28;20039;-48
2022/11/13 08:24:58;;;;;;;2.90;0.80;;;;;;;10.41;74.32;101901.66;5071141;28;20028;-51
2022/11/13 08:27:24;;;;;;;4.55;1.33;;;;;;;10.48;74.05;101895.41;5069238;28;20036;-51
2022/11/13 08:29:51;;;;;;;3.67;1.20;;;;;;;10.28;74.40;101903.09;5071006;28;20034;-49
2022/11/13 08:32:18;;;;;;;3.38;1.52;;;;;;;10.30;74.50;101902.91;5068986;28;20103;-51
2022/11/13 08:34:45;;;;;;;5.20;1.17;;;;;;;10.32;74.66;101899.03;5069321;28;20032;-50
2022/11/13 08:37:11;;;;;;;2.78;1.20;;;;;;;10.23;75.00;101893.91;5069095;28;20036;-51
2022/11/13 08:39:37;;;;;;;6.30;1.05;;;;;;;10.16;75.35;101901.81;5069958;28;20032;-50
2022/11/13 08:42:04;;;;;;;3.90;1.15;;;;;;;10.06;75.86;101903.88;5069105;28;20037;-48
2022/11/13 08:44:31;;;;;;;3.95;1.20;;;;;;;10.02;76.44;101903.38;5069931;28;20485;-51
2022/11/13 08:46:57;;;;;;;2.45;1.17;;;;;;;9.92;76.81;101907.28;5070086;28;20032;-48
2022/11/13 08:49:23;;;;;;;5.32;1.30;;;;;;;9.70;77.48;101904.38;5068655;28;20039;-49
2022/11/13 08:51:49;;;;;;;6.30;1.50;;;;;;;9.75;77.83;101918.06;5070454;28;20031;-48
2022/11/13 08:54:16;;;;;;;5.45;1.80;;;;;;;9.82;77.92;101906.69;5073687;28;20397;-51
2022/11/13 08:56:42;;;;;;;5.72;1.52;;;;;;;9.73;77.78;101908.56;5073712;28;20029;-49
2022/11/13 08:59:09;;;;;;;3.58;1.38;;;;;;;9.72;78.08;101905.06;5072175;28;20021;-49
2022/11/13 09:01:35;;;;;;;3.03;1.30;;;;;;;9.61;78.18;101915.31;5053850;28;20033;-51
2022/11/13 09:04:01;;;;;;;2.65;1.40;;;;;;;9.58;78.61;101908.47;5073767;28;20366;-50
2022/11/13 09:06:28;;;;;;;4.78;1.30;;;;;;;9.47;78.56;101912.34;5073649;28;20028;-48
2022/11/13 09:08:54;;;;;;;5.32;1.42;;;;;;;9.30;79.46;101908.06;5072372;28;20783;-48
2022/11/13 09:11:21;;;;;;;3.40;1.30;;;;;;;9.54;79.15;101912.47;5092748;22;20044;-52
2022/11/13 09:13:47;;;;;;;4.32;1.20;;;;;;;9.29;80.04;101905.56;5093132;28;20472;-47
2022/11/13 09:16:14;;;;;;;4.07;1.25;;;;;;;9.62;78.99;101900.94;5093029;28;20028;-49
2022/11/13 09:18:40;;;;;;;4.55;1.30;;;;;;;9.33;80.05;101901.53;5093562;28;20548;-52
2022/11/13 09:21:06;;;;;;;5.95;1.35;;;;;;;9.17;80.50;101895.25;5092909;28;20028;-48
2022/11/13 09:23:33;;;;;;;5.60;1.30;;;;;;;9.27;79.83;101897.69;5093752;28;20055;-48
2022/11/13 09:26:02;;;;;;;4.07;1.30;;;;;;;9.19;80.43;101905.75;5091985;28;20047;-48
2022/11/13 09:28:29;;;;;;;4.07;1.25;;;;;;;9.32;79.83;101895.34;5083011;28;20036;-48
2022/11/13 09:30:55;;;;;;;3.20;1.13;;;;;;;9.32;79.46;101899.84;5091229;28;20036;-49
2022/11/13 09:33:21;;;;;;;1.75;0.98;;;;;;;9.32;79.85;101894.50;5093976;28;20036;-47
2022/11/13 09:35:47;;;;;;;3.72;1.30;;;;;;;9.22;79.62;101898.25;5090434;28;20032;-48
2022/11/13 09:38:14;;;;;;;3.42;1.23;;;;;;;9.32;79.47;101905.19;5094294;28;20424;-48
2022/11/13 09:40:56;;;;;;;6.05;0.93;;;;;;;9.30;79.62;101897.38;5091912;28;20028;-51
2022/11/13 09:43:26;;;;;;;4.65;1.20;;;;;;;9.34;79.04;101898.69;5093170;28;20099;-52
2022/11/13 09:45:57;;;;;;;4.78;1.50;;;;;;;9.39;79.20;101907.03;5093062;28;20055;-49
2022/11/13 09:48:35;;;;;;;5.05;1.60;;;;;;;9.24;80.06;101904.22;5093026;28;20059;-47
2022/11/13 09:51:09;;;;;;;4.00;1.25;;;;;;;9.39;79.10;101907.03;5092218;28;20031;-48
2022/11/13 09:53:38;;;;;;;4.15;1.38;;;;;;;9.38;78.89;101905.34;5093025;28;20111;-48
2022/11/13 09:56:41;;;;;;;4.47;1.33;;;;;;;9.29;79.41;101913.56;5091854;28;20436;-48
2022/11/13 09:59:31;;;;;;;2.75;1.35;;;;;;;9.21;79.85;101920.59;5092127;28;20043;-51
2022/11/13 10:02:20;;;;;;;3.35;1.58;;;;;;;8.95;80.94;101930.66;5090484;28;20051;-48
2022/11/13 10:04:54;;;;;;;4.57;1.92;;;;;;;8.85;82.24;101927.34;5091637;28;20107;-49
2022/11/13 10:07:40;;;;;;;5.93;1.83;;;;;;;8.69;82.42;101923.66;5091770;28;20115;-48
2022/11/13 10:10:45;;;;;;;6.50;1.70;;;;;;;8.81;82.17;101920.66;5091333;28;20252;-51
2022/11/13 10:13:16;;;;;;;7.22;1.90;;;;;;;8.65;82.28;101926.81;5092321;28;20032;-51
2022/11/13 10:15:48;;;;;;;5.70;1.95;;;;;;;8.68;82.13;101929.19;5092166;28;20020;-49
2022/11/13 10:18:27;;;;;;;3.88;1.67;;;;;;;8.85;81.86;101927.34;5092451;28;20141;-49
2022/11/13 10:20:57;;;;;;;4.25;1.58;;;;;;;8.88;81.56;101927.84;5091451;28;20016;-49
2022/11/13 10:23:36;;;;;;;10.75;2.65;;;;;;;8.75;81.72;101918.66;5093037;28;20503;-50
2022/11/13 10:26:20;;;;;;;5.90;1.80;;;;;;;8.89;81.40;101931.34;5091246;28;20028;-49
2022/11/13 10:28:53;;;;;;;6.03;1.70;;;;;;;8.81;81.65;101926.81;5090452;28;20032;-51
2022/11/13 10:31:19;;;;;;;4.30;1.73;;;;;;;8.62;82.34;101935.19;5076322;28;20098;-51
2022/11/13 10:33:45;;;;;;;4.22;1.92;;;;;;;8.92;81.09;101931.81;5082098;28;20031;-51
2022/11/13 10:36:13;;;;;;;6.35;1.88;;;;;;;9.06;80.27;101926.81;5092921;28;20031;-51
2022/11/13 10:38:44;;;;;;;7.03;2.13;;;;;;;8.86;80.30;101934.34;5093083;28;20024;-51
2022/11/13 10:41:21;;;;;;;4.57;1.65;;;;;;;8.70;81.05;101940.50;5091275;28;20472;-51
2022/11/13 10:43:51;;;;;;;5.07;1.50;;;;;;;8.63;81.43;101937.69;5091949;28;20038;-52
2022/11/13 10:46:23;;;;;;;4.38;1.60;;;;;;;8.50;81.36;101940.03;5092114;28;20036;-52
2022/11/13 10:48:50;;;;;;;3.40;1.67;;;;;;;8.26;82.30;101934.59;5091873;28;20422;-52
2022/11/13 10:51:26;;;;;;;3.50;1.58;;;;;;;8.41;81.87;101938.31;5090475;28;20059;-51
2022/11/13 10:53:53;;;;;;;3.85;1.63;;;;;;;8.44;81.23;101932.69;5092120;28;20031;-52
2022/11/13 10:56:27;;;;;;;4.75;1.88;;;;;;;8.32;81.57;101933.94;5088691;28;20093;-51
2022/11/13 10:59:19;;;;;;;3.30;1.75;;;;;;;8.22;81.94;101931.44;5091759;28;20024;-52
2022/11/13 11:01:48;;;;;;;4.93;1.80;;;;;;;8.21;81.66;101937.75;5084958;28;20032;-50
2022/11/13 11:04:22;;;;;;;3.45;1.63;;;;;;;8.16;81.61;101935.59;5091731;28;20119;-51
2022/11/13 11:06:50;;;;;;;4.75;1.40;;;;;;;8.15;81.49;101933.91;5092849;28;20044;-50
2022/11/13 11:09:29;;;;;;;4.40;1.92;;;;;;;8.32;80.61;101933.94;5092000;28;20031;-51
2022/11/13 11:12:16;;;;;;;5.97;1.70;;;;;;;8.19;80.34;101926.41;5089391;28;20071;-52
2022/11/13 11:14:57;;;;;;;4.25;1.67;;;;;;;8.19;79.92;101931.75;5091364;28;20030;-51
2022/11/13 11:17:35;;;;;;;3.67;1.58;;;;;;;8.17;79.48;101926.59;5091793;28;20427;-50
2022/11/13 11:20:09;;;;;;;5.65;1.52;;;;;;;8.16;79.08;101924.06;5091501;28;20103;-49
2022/11/13 11:22:39;;;;;;;4.30;1.70;;;;;;;8.13;78.98;101925.25;5072251;28;20029;-51
2022/11/13 11:25:15;;;;;;;2.95;1.60;;;;;;;8.20;78.77;101936.09;5080894;28;20024;-52
2022/11/13 11:27:55;;;;;;;2.88;1.60;;;;;;;8.12;78.57;101938.75;5092163;28;20031;-52
2022/11/13 11:30:25;;;;;;;3.10;1.40;;;;;;;8.02;78.39;101938.88;5098470;22;20066;-53
2022/11/13 11:33:00;;;;;;;3.03;1.55;;;;;;;7.99;78.25;101939.19;5089830;28;20035;-52
2022/11/13 11:35:47;;;;;;;5.03;1.67;;;;;;;7.99;77.82;101939.19;5090651;28;20036;-52
2022/11/13 11:38:25;;;;;;;5.63;1.67;;;;;;;7.91;77.26;101936.50;5087647;28;20038;-51